CYVM

Details ICAO CYVM (YVM)
Name QIKIQTARJUAQ
Region Canada
Timezone Unknown (UTC+0.0)
Plans Departing 14
Arriving 13
Stats Elevation 21 ft / 6 m (AMSL)
Location 67.546236° -64.030706°
Runways 1
Magnetic Variation 32.143° W
Sunrise Unknown / Unknown
Sunset Unknown / Unknown
Advertisement - Login to hide

Runways

ID Width Length Bearing (true) Bearing (mag) Surface Threshold Offset Overrun Length
03T 100 ft / 30 m 3,741 ft / 1,140 m 33.20° 65.34° Gravel 0 ft / 0 m 0 ft / 0 m
21T 100 ft / 30 m 3,741 ft / 1,140 m 213.21° 245.35° Gravel 0 ft / 0 m 0 ft / 0 m

Map

Weather


0- 5 10 15 20 25 30 35+ Temperature / ° C

Clouds and Precipitation
Forecast for 2017-12-19 00:00 UTC. Updated an hour ago

Ground ~20,000 ft ~40,000 ft Winds

METAR

CYVM 182200Z AUTO 06005KT 9SM -SN FEW045 OVC100 M18/M21 A2931 RMK SLP928

TAF

TAF CYVM 181838Z 1819/1907 VRB03KT P6SM FEW050 OVC080 TEMPO 1819/1901 P6SM -SN OVC050 FM190100 VRB03KT P6SM SCT040 TEMPO 1901/1907 5SM -SN BR BKN040 RMK NXT FCST BY 190100Z

Frequencies

Recorded 122.55 MHz AWOS
Unicom 122.10 MHz CTAF
Warning: Do not use this data for real-world aviation or navigation. No guarantee of current accuracy is given.